Time;durP1;ratioP1;P1;durP2;ratioP2;P2;SDS_P1;SDS_P2;PMS_P1;PMS_P2;Temp;Humidity;BMP_temperature;BMP_pressure;BME280_temperature;BME280_humidity;BME280_pressure;Samples;Min_cycle;Max_cycle;Signal;HPM_P1;HPM_P2
2022/08/07 00:00:18;;;;;;;11.90;10.80;;;15.80;99.90;;;;;;5009650;28;20232;-79
2022/08/07 00:02:44;;;;;;;11.03;9.43;;;15.80;99.90;;;;;;5010217;28;20185;-77
2022/08/07 00:05:10;;;;;;;12.13;10.60;;;15.70;99.90;;;;;;4974981;28;20487;-76
2022/08/07 00:07:35;;;;;;;12.10;9.77;;;15.60;99.90;;;;;;5009287;28;20436;-77
2022/08/07 00:10:01;;;;;;;14.37;12.00;;;15.60;99.90;;;;;;5010081;28;20485;-82
2022/08/07 00:12:27;;;;;;;13.27;10.40;;;15.70;99.90;;;;;;4976719;28;20187;-80
2022/08/07 00:14:52;;;;;;;11.73;10.60;;;15.70;99.90;;;;;;4992779;28;20195;-80
2022/08/07 00:17:18;;;;;;;11.73;9.80;;;15.60;99.90;;;;;;4993480;28;20551;-79
2022/08/07 00:19:45;;;;;;;9.77;8.73;;;15.60;99.90;;;;;;4993260;28;20250;-80
2022/08/07 00:22:11;;;;;;;10.90;9.10;;;15.60;99.90;;;;;;5010554;28;20179;-79
2022/08/07 00:24:36;;;;;;;10.30;9.20;;;15.50;99.90;;;;;;5010861;28;21001;-80
2022/08/07 00:27:02;;;;;;;10.57;9.00;;;15.60;99.90;;;;;;4977078;28;20194;-79
2022/08/07 00:29:28;;;;;;;10.63;9.53;;;15.60;99.90;;;;;;5010706;28;20210;-80
2022/08/07 00:31:58;;;;;;;10.87;8.10;;;15.60;99.90;;;;;;5011796;28;20500;-79
2022/08/07 00:34:25;;;;;;;8.10;7.30;;;15.60;99.90;;;;;;4993548;28;20508;-79
2022/08/07 00:36:50;;;;;;;12.40;8.13;;;15.60;99.90;;;;;;5011064;28;20425;-77
2022/08/07 00:39:16;;;;;;;9.80;7.47;;;15.50;99.90;;;;;;4991940;28;20450;-78
2022/08/07 00:41:51;;;;;;;11.53;7.37;;;15.40;99.90;;;;;;5009764;28;20201;-78
2022/08/07 00:44:17;;;;;;;9.33;7.87;;;15.30;99.90;;;;;;5009198;28;20196;-78
2022/08/07 00:46:43;;;;;;;10.30;8.70;;;15.30;99.90;;;;;;4991997;28;20465;-78
2022/08/07 00:49:09;;;;;;;8.13;6.77;;;15.40;99.90;;;;;;4991816;28;20757;-78
2022/08/07 00:51:35;;;;;;;9.03;7.60;;;15.40;99.90;;;;;;4991703;28;20238;-78
2022/08/07 00:54:00;;;;;;;9.40;7.30;;;15.40;99.90;;;;;;5009859;28;20423;-78
2022/08/07 00:56:28;;;;;;;11.93;8.70;;;15.40;99.90;;;;;;4991904;28;20908;-78
2022/08/07 00:58:55;;;;;;;10.37;8.60;;;15.30;99.90;;;;;;5009490;28;20207;-78
2022/08/07 01:01:21;;;;;;;13.33;8.33;;;15.40;99.90;;;;;;5009168;28;20949;-77
2022/08/07 01:03:50;;;;;;;8.17;7.37;;;15.30;99.90;;;;;;4991079;28;20448;-77
2022/08/07 01:06:16;;;;;;;9.73;8.73;;;15.00;99.90;;;;;;4990943;28;20490;-77
2022/08/07 01:08:42;;;;;;;8.50;7.60;;;14.80;99.90;;;;;;5008673;28;20410;-77
2022/08/07 01:11:08;;;;;;;8.93;7.20;;;14.90;99.90;;;;;;5009795;28;21161;-77
2022/08/07 01:13:35;;;;;;;9.10;7.40;;;15.00;99.90;;;;;;5012668;28;20425;-77
2022/08/07 01:16:02;;;;;;;7.17;6.47;;;15.00;99.90;;;;;;4978832;28;20189;-77
2022/08/07 01:18:28;;;;;;;8.93;6.00;;;15.00;99.90;;;;;;4995107;28;20454;-77
2022/08/07 01:21:03;;;;;;;6.00;5.40;;;15.00;99.90;;;;;;4995979;28;20977;-77
2022/08/07 01:23:29;;;;;;;7.53;6.10;;;15.00;99.90;;;;;;5014826;28;20450;-77
2022/08/07 01:25:55;;;;;;;8.13;5.50;;;15.10;99.90;;;;;;5015323;28;20983;-77
2022/08/07 01:28:21;;;;;;;10.30;5.40;;;15.00;99.90;;;;;;4998465;28;20586;-79
2022/08/07 01:30:48;;;;;;;9.50;6.33;;;15.10;99.90;;;;;;4996842;28;20682;-79
2022/08/07 01:33:14;;;;;;;6.03;5.37;;;15.10;99.90;;;;;;4980213;28;20448;-79
2022/08/07 01:35:40;;;;;;;6.10;4.80;;;15.10;99.90;;;;;;4995635;28;20452;-78
2022/08/07 01:38:06;;;;;;;5.53;5.03;;;15.00;99.90;;;;;;4995642;28;20186;-78
2022/08/07 01:40:32;;;;;;;8.57;6.07;;;15.00;99.90;;;;;;4995371;28;20214;-78
2022/08/07 01:42:58;;;;;;;7.57;5.10;;;14.90;99.90;;;;;;4995418;28;20440;-78
2022/08/07 01:45:25;;;;;;;4.37;3.97;;;14.90;99.90;;;;;;4978854;28;20478;-79
2022/08/07 01:47:51;;;;;;;3.67;3.37;;;15.00;99.90;;;;;;4995233;28;20268;-80
2022/08/07 01:50:17;;;;;;;4.30;3.90;;;14.90;99.90;;;;;;4979314;28;20608;-78
2022/08/07 01:52:46;;;;;;;5.43;3.90;;;14.80;99.90;;;;;;4995077;28;20182;-78
2022/08/07 01:55:14;;;;;;;4.67;3.90;;;14.70;99.90;;;;;;4995111;28;20674;-78
2022/08/07 01:57:41;;;;;;;6.93;3.97;;;14.70;99.90;;;;;;4994838;28;20441;-78
2022/08/07 02:00:10;;;;;;;6.27;4.40;;;14.60;99.90;;;;;;5012538;28;20492;-78
2022/08/07 02:02:44;;;;;;;4.27;3.40;;;14.70;99.90;;;;;;4994949;28;20430;-79
2022/08/07 02:05:15;;;;;;;4.80;4.30;;;14.70;99.90;;;;;;4995363;28;21072;-79
2022/08/07 02:07:48;;;;;;;6.43;5.20;;;14.70;99.90;;;;;;4979289;28;20509;-79
2022/08/07 02:10:17;;;;;;;4.10;3.57;;;14.60;99.90;;;;;;4994823;28;20475;-79
2022/08/07 02:12:46;;;;;;;7.43;4.87;;;14.60;99.90;;;;;;5012595;28;20926;-80
2022/08/07 02:15:13;;;;;;;6.60;4.60;;;14.60;99.90;;;;;;4978853;28;20491;-81
2022/08/07 02:17:41;;;;;;;5.43;4.53;;;14.60;99.90;;;;;;4994549;28;20484;-80
2022/08/07 02:20:08;;;;;;;4.90;4.40;;;14.50;99.90;;;;;;4978675;28;20452;-80
2022/08/07 02:22:37;;;;;;;4.00;3.70;;;14.60;99.90;;;;;;4993900;28;20424;-80
2022/08/07 02:25:05;;;;;;;4.60;4.20;;;14.60;99.90;;;;;;4994465;28;20470;-80
2022/08/07 02:27:32;;;;;;;7.70;4.53;;;14.60;99.90;;;;;;5012201;28;20442;-78
2022/08/07 02:29:59;;;;;;;4.07;3.50;;;14.50;99.90;;;;;;5011742;28;20449;-79
2022/08/07 02:32:26;;;;;;;6.30;3.83;;;14.40;99.90;;;;;;5012282;28;20523;-78
2022/08/07 02:34:53;;;;;;;4.77;3.83;;;14.30;99.90;;;;;;4978475;28;20429;-79
2022/08/07 02:37:19;;;;;;;8.17;3.93;;;14.10;99.90;;;;;;5012302;28;20435;-80
2022/08/07 02:39:46;;;;;;;5.17;4.27;;;14.10;99.90;;;;;;4978007;28;20456;-80
2022/08/07 02:42:12;;;;;;;4.83;4.10;;;13.80;99.90;;;;;;4994590;28;20434;-80
2022/08/07 02:44:43;;;;;;;9.10;4.77;;;13.60;99.90;;;;;;4977062;28;20435;-80
2022/08/07 02:47:11;;;;;;;5.77;4.20;;;13.40;99.90;;;;;;4993396;28;20428;-80
2022/08/07 02:49:36;;;;;;;4.40;4.00;;;13.70;99.90;;;;;;4993086;28;20436;-80
2022/08/07 02:52:06;;;;;;;5.47;4.17;;;13.90;99.90;;;;;;4976911;28;20786;-80
2022/08/07 02:54:35;;;;;;;9.17;4.40;;;13.90;99.90;;;;;;4976619;28;20189;-80
2022/08/07 02:57:02;;;;;;;5.17;4.67;;;13.70;99.90;;;;;;5010340;28;20417;-78
2022/08/07 02:59:30;;;;;;;7.70;5.20;;;13.60;99.90;;;;;;5010568;28;20425;-79
2022/08/07 03:01:58;;;;;;;5.40;4.90;;;13.40;99.90;;;;;;5010379;28;20412;-77
2022/08/07 03:04:25;;;;;;;10.10;4.97;;;13.20;99.90;;;;;;4992554;28;20425;-78
2022/08/07 03:06:52;;;;;;;7.67;4.57;;;13.30;99.90;;;;;;4992766;28;20480;-78
2022/08/07 03:09:20;;;;;;;6.40;4.60;;;13.40;99.90;;;;;;4995217;28;20449;-80
2022/08/07 03:11:46;;;;;;;5.50;5.00;;;13.60;99.90;;;;;;5013389;28;20925;-80
2022/08/07 03:14:13;;;;;;;5.23;4.17;;;13.60;99.90;;;;;;4995881;28;20560;-79
2022/08/07 03:16:39;;;;;;;5.97;3.83;;;13.60;99.90;;;;;;4977468;28;20451;-79
2022/08/07 03:19:06;;;;;;;4.57;4.10;;;13.50;99.90;;;;;;4977923;28;20907;-80
2022/08/07 03:21:32;;;;;;;7.77;4.87;;;13.60;99.90;;;;;;4994985;28;20785;-81
2022/08/07 03:23:59;;;;;;;4.77;4.37;;;13.60;99.90;;;;;;4993673;28;20435;-80
2022/08/07 03:26:28;;;;;;;5.77;4.27;;;13.60;99.90;;;;;;4976251;28;20480;-80
2022/08/07 03:28:55;;;;;;;7.20;4.10;;;13.70;99.90;;;;;;4976542;28;20444;-80
2022/08/07 03:31:22;;;;;;;5.70;5.20;;;13.70;99.90;;;;;;4992843;28;20450;-81
2022/08/07 03:33:52;;;;;;;5.73;4.70;;;13.70;99.90;;;;;;4975999;28;21129;-80
2022/08/07 03:36:20;;;;;;;7.20;4.60;;;13.60;99.90;;;;;;4976071;28;20432;-80
2022/08/07 03:38:47;;;;;;;7.10;4.93;;;13.60;99.90;;;;;;4991826;28;20935;-80
2022/08/07 03:41:14;;;;;;;6.23;4.83;;;13.60;99.90;;;;;;5010253;28;20416;-81
2022/08/07 03:43:41;;;;;;;4.53;4.13;;;13.60;99.90;;;;;;4993047;28;20478;-80
2022/08/07 03:46:07;;;;;;;7.00;5.60;;;13.70;99.90;;;;;;5010443;28;20978;-80
2022/08/07 03:48:34;;;;;;;8.00;5.43;;;13.60;99.90;;;;;;4976370;28;20424;-81
2022/08/07 03:51:03;;;;;;;5.47;4.97;;;13.50;99.90;;;;;;5010721;28;20871;-82
2022/08/07 03:53:29;;;;;;;6.10;5.50;;;13.60;99.90;;;;;;4976453;28;20437;-81
2022/08/07 03:55:57;;;;;;;7.17;4.80;;;13.60;99.90;;;;;;4976772;28;20805;-79
2022/08/07 03:58:24;;;;;;;7.17;5.10;;;13.70;99.90;;;;;;5010661;28;20428;-81
2022/08/07 04:00:52;;;;;;;8.73;5.00;;;13.80;99.90;;;;;;4993057;28;20456;-80
2022/08/07 04:03:19;;;;;;;5.93;4.63;;;13.80;99.90;;;;;;4992772;28;20479;-79
2022/08/07 04:05:44;;;;;;;7.93;5.07;;;13.80;99.90;;;;;;5010470;28;20468;-80
2022/08/07 04:08:13;;;;;;;5.40;4.90;;;13.80;99.90;;;;;;4993177;28;20778;-82
2022/08/07 04:10:40;;;;;;;4.47;4.13;;;13.80;99.90;;;;;;4992554;28;20201;-81
2022/08/07 04:13:06;;;;;;;4.63;4.30;;;13.70;99.90;;;;;;4976736;28;20458;-80
2022/08/07 04:15:32;;;;;;;8.53;4.93;;;13.80;99.90;;;;;;5009607;28;20427;-81
2022/08/07 04:18:00;;;;;;;5.60;4.47;;;13.80;99.90;;;;;;4975625;28;20457;-81
2022/08/07 04:20:25;;;;;;;7.20;6.00;;;13.80;99.90;;;;;;4991470;28;20449;-78
2022/08/07 04:22:52;;;;;;;6.23;5.60;;;13.80;99.90;;;;;;5009508;28;20428;-77
2022/08/07 04:25:18;;;;;;;10.63;6.23;;;13.80;99.90;;;;;;4991707;28;20240;-78
2022/08/07 04:27:44;;;;;;;6.60;5.70;;;13.80;99.90;;;;;;4991887;28;20439;-78
2022/08/07 04:30:10;;;;;;;5.97;5.47;;;13.90;99.90;;;;;;5008961;28;20801;-77
2022/08/07 04:32:36;;;;;;;7.07;5.70;;;14.00;99.90;;;;;;4991231;28;20419;-74
2022/08/07 04:35:05;;;;;;;6.73;5.50;;;14.00;99.90;;;;;;5009376;28;20428;-78
2022/08/07 04:37:31;;;;;;;6.63;6.03;;;14.10;99.90;;;;;;5009277;28;20449;-78
2022/08/07 04:39:57;;;;;;;7.70;5.90;;;14.10;99.90;;;;;;4974971;28;20463;-76
2022/08/07 04:42:27;;;;;;;7.17;5.87;;;14.10;99.90;;;;;;5008926;28;20428;-76
2022/08/07 04:44:54;;;;;;;10.53;6.17;;;14.10;99.90;;;;;;4975127;28;20240;-76
2022/08/07 04:47:32;;;;;;;7.33;5.30;;;14.00;99.90;;;;;;5012173;28;20424;-76
2022/08/07 04:50:16;;;;;;;5.93;5.27;;;14.00;99.90;;;;;;5012629;28;20463;-77
2022/08/07 04:52:52;;;;;;;9.77;6.00;;;14.00;99.90;;;;;;5012789;28;20768;-77
2022/08/07 04:55:22;;;;;;;5.83;5.30;;;14.00;99.90;;;;;;5013250;28;20419;-76
2022/08/07 04:58:07;;;;;;;6.50;5.23;;;14.10;99.90;;;;;;5013489;28;20421;-77
2022/08/07 05:00:58;;;;;;;5.27;4.87;;;14.10;99.90;;;;;;5012989;28;20450;-78
2022/08/07 05:03:39;;;;;;;6.30;5.43;;;14.20;99.90;;;;;;4994955;28;20483;-77
2022/08/07 05:06:20;;;;;;;7.30;5.87;;;14.30;99.90;;;;;;4994794;28;20606;-78
2022/08/07 05:09:13;;;;;;;5.90;5.30;;;14.40;99.90;;;;;;4995078;28;20429;-78
2022/08/07 05:11:45;;;;;;;5.20;4.60;;;14.40;99.90;;;;;;4995718;28;20512;-78
2022/08/07 05:14:18;;;;;;;6.93;4.20;;;14.40;99.90;;;;;;4996105;28;20516;-78
2022/08/07 05:16:46;;;;;;;5.10;4.60;;;14.50;99.90;;;;;;5014390;28;20444;-80
2022/08/07 05:19:24;;;;;;;4.93;4.43;;;14.60;99.90;;;;;;4996383;28;20479;-78
2022/08/07 05:21:54;;;;;;;4.30;3.83;;;14.80;99.90;;;;;;5015789;28;20909;-77
2022/08/07 05:24:21;;;;;;;6.07;4.23;;;14.90;99.90;;;;;;5014193;28;20425;-76
2022/08/07 05:26:50;;;;;;;5.50;4.50;;;15.00;99.90;;;;;;4995754;28;20476;-77
2022/08/07 05:29:18;;;;;;;4.73;4.10;;;15.10;99.90;;;;;;4996638;28;20466;-76
2022/08/07 05:31:47;;;;;;;6.03;4.23;;;15.20;99.90;;;;;;5013001;28;20476;-75
2022/08/07 05:34:14;;;;;;;5.80;4.30;;;15.30;99.90;;;;;;5013082;28;20432;-76
2022/08/07 05:36:43;;;;;;;5.10;4.70;;;15.30;99.90;;;;;;5012984;28;20429;-76
2022/08/07 05:39:10;;;;;;;5.37;4.87;;;15.40;99.90;;;;;;5011952;28;20574;-76
2022/08/07 05:41:41;;;;;;;6.03;4.50;;;15.40;99.90;;;;;;5012714;28;20482;-76
2022/08/07 05:44:09;;;;;;;5.60;4.20;;;15.50;99.90;;;;;;4978880;28;20432;-76
2022/08/07 05:46:37;;;;;;;5.57;5.00;;;15.50;99.90;;;;;;5012553;28;21221;-76
2022/08/07 05:49:05;;;;;;;9.20;4.90;;;15.60;99.90;;;;;;5011882;28;20452;-75
2022/08/07 05:51:31;;;;;;;5.63;4.90;;;15.70;99.90;;;;;;5012083;28;20460;-76
2022/08/07 05:53:57;;;;;;;6.70;5.07;;;15.80;99.90;;;;;;5012200;28;20455;-76
2022/08/07 05:56:23;;;;;;;6.53;4.33;;;15.80;99.90;;;;;;5011961;28;20187;-76
2022/08/07 05:58:49;;;;;;;12.03;4.80;;;15.90;99.90;;;;;;5011380;28;20184;-76
2022/08/07 06:01:16;;;;;;;6.87;4.80;;;15.90;99.90;;;;;;4978595;28;21238;-76
2022/08/07 06:03:55;;;;;;;5.60;5.03;;;16.00;99.90;;;;;;5012302;28;20441;-76
2022/08/07 06:06:22;;;;;;;7.93;4.40;;;16.10;99.90;;;;;;5012218;28;20909;-76
2022/08/07 06:08:48;;;;;;;5.07;4.50;;;16.20;99.90;;;;;;4994414;28;21090;-76
2022/08/07 06:11:15;;;;;;;5.40;5.00;;;16.30;99.90;;;;;;5012248;28;20423;-76
2022/08/07 06:13:41;;;;;;;4.90;4.50;;;16.40;99.90;;;;;;5012189;28;20422;-76
2022/08/07 06:16:07;;;;;;;10.63;5.03;;;16.50;99.90;;;;;;4994364;28;20433;-76
2022/08/07 06:18:33;;;;;;;5.17;4.77;;;16.60;99.90;;;;;;5012063;28;20434;-76
2022/08/07 06:21:03;;;;;;;5.60;4.27;;;16.80;99.90;;;;;;5011977;28;20430;-76
2022/08/07 06:23:30;;;;;;;5.03;4.30;;;16.80;99.90;;;;;;5011364;28;20435;-75
2022/08/07 06:25:56;;;;;;;5.10;4.60;;;16.80;99.90;;;;;;4977220;28;20477;-75
2022/08/07 06:28:23;;;;;;;6.33;5.17;;;17.00;99.90;;;;;;5011156;28;20832;-75
2022/08/07 06:30:48;;;;;;;6.53;4.40;;;17.00;99.90;;;;;;4977329;28;20451;-75
2022/08/07 06:33:14;;;;;;;5.57;5.10;;;17.10;99.90;;;;;;5011040;28;20430;-76
2022/08/07 06:35:40;;;;;;;11.00;5.00;;;17.30;99.90;;;;;;4976863;28;20249;-76
2022/08/07 06:38:06;;;;;;;4.57;4.17;;;17.30;99.90;;;;;;4975866;28;20579;-75
2022/08/07 06:40:46;;;;;;;5.20;4.70;;;17.50;99.90;;;;;;5009917;28;20208;-75
2022/08/07 06:43:14;;;;;;;4.47;4.07;;;17.60;99.90;;;;;;5009963;28;20916;-76
2022/08/07 06:45:40;;;;;;;7.40;4.87;;;17.70;99.90;;;;;;5010840;28;20486;-76
2022/08/07 06:48:06;;;;;;;6.03;4.77;;;17.80;99.90;;;;;;4976178;28;20770;-76
2022/08/07 06:50:34;;;;;;;5.07;4.57;;;17.80;99.90;;;;;;5009616;28;20448;-76
2022/08/07 06:53:03;;;;;;;6.93;4.30;;;17.90;99.90;;;;;;4993125;28;20425;-76
2022/08/07 06:55:31;;;;;;;6.83;4.03;;;18.00;99.90;;;;;;4992955;28;20427;-76
2022/08/07 06:58:01;;;;;;;5.07;4.60;;;18.00;99.90;;;;;;5009917;28;21258;-76
2022/08/07 07:00:31;;;;;;;10.17;5.10;;;18.10;99.90;;;;;;4991443;28;20449;-76
2022/08/07 07:02:57;;;;;;;5.00;4.50;;;18.10;99.90;;;;;;4991689;28;20617;-76
2022/08/07 07:05:23;;;;;;;6.63;4.97;;;18.30;99.90;;;;;;4975566;28;21062;-76
2022/08/07 07:07:49;;;;;;;8.93;5.03;;;18.30;99.90;;;;;;4991825;28;20420;-76
2022/08/07 07:10:24;;;;;;;10.20;4.60;;;18.40;99.90;;;;;;4991504;28;20360;-76
2022/08/07 07:12:57;;;;;;;5.73;4.37;;;18.40;99.90;;;;;;5009333;28;20188;-76
2022/08/07 07:15:25;;;;;;;4.63;4.10;;;18.40;99.90;;;;;;5009291;28;20424;-76
2022/08/07 07:18:17;;;;;;;8.23;5.13;;;18.40;99.90;;;;;;5009048;28;20482;-76
2022/08/07 07:20:50;;;;;;;5.13;4.40;;;18.40;99.90;;;;;;5009075;28;20932;-76
2022/08/07 07:23:16;;;;;;;5.10;3.70;;;18.50;99.90;;;;;;5008612;28;20501;-76
2022/08/07 07:25:44;;;;;;;4.87;4.10;;;18.60;99.90;;;;;;5008396;28;20509;-76
2022/08/07 07:28:15;;;;;;;4.83;4.37;;;18.60;99.90;;;;;;5008408;28;20797;-76
2022/08/07 07:30:49;;;;;;;7.53;4.50;;;18.60;99.90;;;;;;4990937;28;20465;-76
2022/08/07 07:33:17;;;;;;;7.07;4.43;;;18.70;99.90;;;;;;5008495;28;20778;-76
2022/08/07 07:35:50;;;;;;;4.07;3.60;;;18.70;99.90;;;;;;5008057;28;20442;-76
2022/08/07 07:38:19;;;;;;;6.70;4.40;;;18.80;99.90;;;;;;4975023;28;21250;-76
2022/08/07 07:40:47;;;;;;;5.33;3.90;;;18.90;99.90;;;;;;5007809;28;20866;-76
2022/08/07 07:43:14;;;;;;;3.97;3.63;;;19.00;99.90;;;;;;4990657;28;20527;-76
2022/08/07 07:45:41;;;;;;;6.43;4.17;;;19.10;99.90;;;;;;5007778;28;20570;-76
2022/08/07 07:48:10;;;;;;;3.90;3.53;;;19.20;99.90;;;;;;4990034;28;20956;-77
2022/08/07 07:50:38;;;;;;;3.60;3.30;;;19.30;99.90;;;;;;5007929;28;21067;-76
2022/08/07 07:53:08;;;;;;;6.47;3.70;;;19.40;99.90;;;;;;4990126;28;20420;-76
2022/08/07 07:55:34;;;;;;;4.70;3.10;;;19.60;99.90;;;;;;5007778;28;20778;-76
2022/08/07 07:58:01;;;;;;;3.60;3.30;;;19.70;99.90;;;;;;4989909;28;20444;-76
2022/08/07 08:00:27;;;;;;;3.23;2.50;;;19.90;99.90;;;;;;4990055;28;21262;-76
2022/08/07 08:02:58;;;;;;;2.60;2.40;;;20.10;99.90;;;;;;4990099;28;20436;-76
2022/08/07 08:05:23;;;;;;;4.50;2.50;;;20.10;99.90;;;;;;4990101;28;20507;-76
2022/08/07 08:07:50;;;;;;;3.10;2.80;;;20.20;99.90;;;;;;5008068;28;20518;-76
2022/08/07 08:10:18;;;;;;;4.60;2.00;;;20.30;99.90;;;;;;4990002;28;20231;-76
2022/08/07 08:12:50;;;;;;;1.90;1.80;;;20.40;99.90;;;;;;4991302;28;20428;-76
2022/08/07 08:15:16;;;;;;;2.30;1.50;;;20.50;99.90;;;;;;4990549;28;20433;-77
2022/08/07 08:17:43;;;;;;;3.90;1.67;;;20.60;99.90;;;;;;5009274;28;20443;-77
2022/08/07 08:20:10;;;;;;;4.33;1.80;;;20.70;99.90;;;;;;5008784;28;20216;-77
2022/08/07 08:28:17;;;;;;;1.40;1.30;;;21.10;99.90;;;;;;5008733;28;20422;-76
2022/08/07 08:30:44;;;;;;;1.87;1.47;;;21.30;99.90;;;;;;5008677;28;20436;-77
2022/08/07 08:33:17;;;;;;;1.30;1.20;;;21.30;97.70;;;;;;4974024;28;20485;-78
2022/08/07 08:35:48;;;;;;;1.30;1.20;;;21.30;97.50;;;;;;4992571;28;20917;-75
2022/08/07 08:38:16;;;;;;;1.90;1.17;;;21.40;96.70;;;;;;4991002;28;20431;-77
2022/08/07 08:41:04;;;;;;;1.53;1.40;;;21.60;95.80;;;;;;4989900;28;20471;-77
2022/08/07 08:43:36;;;;;;;2.23;1.40;;;21.80;97.40;;;;;;5007981;28;20420;-77
2022/08/07 08:46:17;;;;;;;1.60;1.00;;;22.10;98.40;;;;;;5007779;28;20481;-77
2022/08/07 08:49:09;;;;;;;1.50;1.00;;;22.20;95.40;;;;;;5007834;28;20416;-77
2022/08/07 08:51:46;;;;;;;2.13;1.20;;;22.30;93.90;;;;;;5008387;28;20891;-77
2022/08/07 08:54:30;;;;;;;1.67;1.40;;;22.50;93.30;;;;;;5008760;28;21064;-77
2022/08/07 08:57:00;;;;;;;2.17;1.03;;;22.60;93.10;;;;;;4990322;28;20455;-77
2022/08/07 08:59:28;;;;;;;3.37;1.30;;;22.70;92.90;;;;;;4990688;28;20877;-77
2022/08/07 09:02:12;;;;;;;2.90;1.27;;;22.70;92.90;;;;;;5008152;28;20456;-77
2022/08/07 09:04:44;;;;;;;1.20;1.10;;;22.90;90.90;;;;;;5007601;28;21382;-77
2022/08/07 09:07:31;;;;;;;2.57;1.27;;;23.10;89.60;;;;;;5007911;28;20818;-77
2022/08/07 09:10:29;;;;;;;1.40;0.93;;;23.20;91.80;;;;;;5007627;28;20817;-76
2022/08/07 09:13:27;;;;;;;2.90;0.90;;;23.40;90.90;;;;;;4997044;28;20444;-76
2022/08/07 09:16:02;;;;;;;2.17;1.40;;;23.60;88.70;;;;;;4989220;28;20455;-77
2022/08/07 09:18:33;;;;;;;2.57;1.90;;;23.70;89.40;;;;;;5007614;28;20836;-76
2022/08/07 09:21:31;;;;;;;1.77;1.40;;;23.80;89.40;;;;;;5007658;28;21089;-77
2022/08/07 09:24:21;;;;;;;0.90;0.80;;;23.90;87.60;;;;;;4974255;28;20457;-77
2022/08/07 09:27:01;;;;;;;1.53;1.10;;;24.00;85.10;;;;;;5007607;28;20473;-76
2022/08/07 09:29:48;;;;;;;1.20;1.10;;;24.20;86.50;;;;;;4989602;28;20473;-76
2022/08/07 09:32:24;;;;;;;1.60;1.20;;;24.50;85.80;;;;;;5007470;28;20422;-76
2022/08/07 09:35:08;;;;;;;4.13;1.70;;;24.60;84.20;;;;;;4993127;28;20437;-76
2022/08/07 09:37:48;;;;;;;3.20;2.60;;;24.90;81.80;;;;;;4992419;28;20431;-77
2022/08/07 09:40:57;;;;;;;2.33;1.50;;;25.00;82.50;;;;;;4992251;28;20508;-76
2022/08/07 09:43:44;;;;;;;1.80;1.00;;;25.20;80.00;;;;;;4996722;28;20439;-76
2022/08/07 09:46:38;;;;;;;1.57;1.13;;;25.40;78.10;;;;;;5009998;28;20988;-76
2022/08/07 09:49:43;;;;;;;2.00;1.10;;;25.70;77.40;;;;;;5009944;28;20446;-76
2022/08/07 09:52:28;;;;;;;1.50;1.00;;;26.00;76.10;;;;;;5009840;28;20420;-76
2022/08/07 09:55:03;;;;;;;3.47;2.30;;;26.00;75.20;;;;;;4992061;28;20968;-76
2022/08/07 09:57:34;;;;;;;2.60;1.67;;;26.30;74.20;;;;;;5009810;28;20418;-76
2022/08/07 10:00:06;;;;;;;1.47;1.37;;;26.20;72.10;;;;;;5009865;28;20891;-76
2022/08/07 10:02:59;;;;;;;2.20;2.00;;;26.10;73.30;;;;;;5009877;28;20430;-76
2022/08/07 10:06:08;;;;;;;2.23;2.00;;;26.30;72.30;;;;;;4991561;28;20477;-76
2022/08/07 10:08:54;;;;;;;2.17;1.53;;;26.30;70.10;;;;;;5009641;28;20420;-77
2022/08/07 10:11:48;;;;;;;1.30;0.90;;;26.20;71.10;;;;;;5009861;28;20422;-76
2022/08/07 10:14:43;;;;;;;1.97;1.57;;;26.30;69.80;;;;;;4991573;28;20428;-76
2022/08/07 10:17:21;;;;;;;0.97;0.87;;;26.30;69.30;;;;;;4991535;28;20439;-76
2022/08/07 10:20:08;;;;;;;2.13;1.20;;;26.30;69.50;;;;;;5009538;28;20558;-76
2022/08/07 10:23:01;;;;;;;2.30;1.10;;;26.70;68.20;;;;;;4991683;28;20435;-75
2022/08/07 10:25:48;;;;;;;3.77;2.90;;;27.00;66.50;;;;;;4991433;28;20505;-76
2022/08/07 10:28:22;;;;;;;3.83;3.43;;;27.10;66.10;;;;;;5009569;28;20520;-76
2022/08/07 10:31:25;;;;;;;2.47;2.20;;;27.30;66.70;;;;;;4992612;28;20988;-76
2022/08/07 10:34:06;;;;;;;4.77;1.80;;;27.60;65.70;;;;;;4991636;28;20427;-76
2022/08/07 10:37:09;;;;;;;2.97;2.20;;;27.60;62.20;;;;;;5009037;28;20416;-76
2022/08/07 10:39:52;;;;;;;2.97;1.70;;;27.80;61.90;;;;;;5008975;28;20450;-76
2022/08/07 10:42:37;;;;;;;1.90;1.70;;;27.90;62.50;;;;;;4991055;28;20451;-76
2022/08/07 10:45:22;;;;;;;2.43;1.87;;;27.90;60.00;;;;;;4991883;28;20462;-76
2022/08/07 10:48:13;;;;;;;1.93;1.73;;;27.80;59.70;;;;;;5010627;28;20913;-76
2022/08/07 10:51:20;;;;;;;1.93;0.90;;;27.90;59.70;;;;;;5011359;28;20443;-76
2022/08/07 10:54:00;;;;;;;2.00;1.77;;;28.00;59.50;;;;;;4949693;29;20434;-76
2022/08/07 10:56:57;;;;;;;1.20;0.90;;;27.90;60.90;;;;;;4949590;29;20427;-76
2022/08/07 10:59:53;;;;;;;1.90;0.90;;;28.00;58.50;;;;;;4998653;28;20448;-76
2022/08/07 11:02:28;;;;;;;2.60;0.80;;;28.00;57.60;;;;;;4993074;28;20435;-76
2022/08/07 11:04:56;;;;;;;1.10;0.50;;;28.00;58.60;;;;;;5010914;28;20431;-76
2022/08/07 11:07:53;;;;;;;1.00;0.83;;;28.00;58.90;;;;;;5010929;28;20472;-76
2022/08/07 11:10:33;;;;;;;2.43;0.83;;;28.00;58.20;;;;;;5010603;28;21032;-76
2022/08/07 11:13:11;;;;;;;1.30;1.10;;;28.00;58.00;;;;;;5010814;28;20444;-76
2022/08/07 11:15:40;;;;;;;1.10;0.60;;;27.90;56.80;;;;;;5010400;28;20420;-76
2022/08/07 11:18:31;;;;;;;1.10;0.80;;;28.00;54.90;;;;;;5010255;28;20478;-76
2022/08/07 11:21:43;;;;;;;3.13;1.10;;;28.10;56.30;;;;;;5009991;28;20439;-76
2022/08/07 11:24:32;;;;;;;0.90;0.70;;;28.40;57.30;;;;;;4986665;28;20424;-76
2022/08/07 11:27:41;;;;;;;1.00;0.80;;;28.70;55.10;;;;;;5010016;28;20613;-76
2022/08/07 11:30:13;;;;;;;2.47;0.80;;;29.00;54.00;;;;;;5009314;28;20483;-76
2022/08/07 11:33:05;;;;;;;2.90;0.93;;;29.20;56.40;;;;;;4992068;28;20926;-76
2022/08/07 11:35:44;;;;;;;3.13;0.87;;;29.20;55.30;;;;;;5009821;28;20473;-76
2022/08/07 11:38:34;;;;;;;3.10;0.80;;;29.20;55.30;;;;;;5009984;28;20447;-76
2022/08/07 11:41:10;;;;;;;1.00;0.80;;;29.40;54.60;;;;;;5009645;28;20444;-76
2022/08/07 11:43:51;;;;;;;4.90;1.10;;;29.50;53.60;;;;;;5009991;28;20419;-75
2022/08/07 11:46:28;;;;;;;0.83;0.63;;;29.60;54.30;;;;;;5009053;28;20467;-76
2022/08/07 11:49:22;;;;;;;1.00;0.90;;;29.50;53.40;;;;;;5009436;28;20424;-76
2022/08/07 11:51:54;;;;;;;1.43;0.70;;;29.30;52.90;;;;;;5009846;28;20904;-76
2022/08/07 11:54:41;;;;;;;1.47;0.90;;;29.30;53.00;;;;;;4991939;28;20547;-76
2022/08/07 11:57:36;;;;;;;3.27;0.97;;;29.20;53.00;;;;;;5008979;28;20874;-77
2022/08/07 12:00:15;;;;;;;1.10;1.00;;;29.40;52.60;;;;;;5009518;28;20830;-77
2022/08/07 12:02:47;;;;;;;2.03;1.00;;;29.60;51.80;;;;;;5011018;28;20435;-79
2022/08/07 12:05:15;;;;;;;1.53;0.83;;;29.80;52.30;;;;;;4993405;28;20478;-80
2022/08/07 12:07:53;;;;;;;4.90;0.80;;;30.20;52.90;;;;;;5011967;28;20424;-79
2022/08/07 12:10:50;;;;;;;3.00;0.70;;;30.30;52.50;;;;;;5010254;28;20436;-80
2022/08/07 12:13:55;;;;;;;1.30;0.77;;;30.30;50.90;;;;;;4992272;28;20419;-79
2022/08/07 12:16:26;;;;;;;2.40;0.80;;;30.00;51.20;;;;;;4969678;28;20450;-79
2022/08/07 12:19:05;;;;;;;0.97;0.87;;;30.10;51.00;;;;;;5027506;28;20419;-79
2022/08/07 12:21:45;;;;;;;1.87;0.80;;;30.20;51.60;;;;;;5015414;28;20534;-79
2022/08/07 12:24:30;;;;;;;1.43;0.87;;;29.80;50.60;;;;;;5026504;28;20414;-76
2022/08/07 12:27:08;;;;;;;1.20;1.00;;;29.80;51.90;;;;;;5008450;28;20451;-76
2022/08/07 12:30:07;;;;;;;1.20;1.10;;;29.70;51.60;;;;;;5027233;28;20448;-76
2022/08/07 12:32:46;;;;;;;2.07;0.90;;;29.90;51.10;;;;;;4982544;28;20435;-76
2022/08/07 12:35:14;;;;;;;1.00;0.80;;;30.20;51.10;;;;;;5011093;28;20462;-77
2022/08/07 12:37:41;;;;;;;1.40;0.90;;;30.10;50.40;;;;;;5010448;28;20434;-76
2022/08/07 12:40:08;;;;;;;1.40;1.17;;;30.30;53.40;;;;;;4992615;28;20531;-76
2022/08/07 12:42:35;;;;;;;0.90;0.80;;;30.50;52.00;;;;;;5010595;28;20478;-76
2022/08/07 12:45:07;;;;;;;1.57;1.17;;;30.10;50.20;;;;;;5009791;28;20430;-76
2022/08/07 12:47:44;;;;;;;1.10;0.90;;;30.20;51.00;;;;;;4991510;28;20430;-76
2022/08/07 12:50:30;;;;;;;1.17;0.80;;;30.20;53.40;;;;;;5009507;28;20423;-76
2022/08/07 12:53:02;;;;;;;3.63;1.00;;;30.40;51.70;;;;;;5010434;28;20411;-76
2022/08/07 12:55:35;;;;;;;1.30;0.83;;;30.50;52.90;;;;;;4992467;28;20423;-76
2022/08/07 12:58:01;;;;;;;3.43;1.00;;;30.80;51.60;;;;;;5010216;28;20451;-76
2022/08/07 13:01:07;;;;;;;2.70;0.90;;;30.80;51.60;;;;;;5004508;28;20440;-76
2022/08/07 13:03:54;;;;;;;1.00;0.80;;;30.90;51.10;;;;;;5011111;28;20431;-76
2022/08/07 13:06:45;;;;;;;6.77;1.23;;;30.90;51.10;;;;;;5010171;28;20467;-76
2022/08/07 13:09:40;;;;;;;1.43;0.77;;;30.70;51.30;;;;;;5015226;28;20435;-76
2022/08/07 13:12:32;;;;;;;1.00;0.90;;;30.60;52.10;;;;;;5013800;28;20507;-76
2022/08/07 13:15:20;;;;;;;1.70;0.83;;;30.80;52.00;;;;;;5014386;28;20433;-76
2022/08/07 13:18:10;;;;;;;1.47;1.00;;;30.70;51.30;;;;;;5016580;28;20403;-78
2022/08/07 13:20:59;;;;;;;1.00;0.90;;;30.50;50.00;;;;;;5017389;28;20521;-79
2022/08/07 13:23:38;;;;;;;1.20;1.00;;;30.50;50.00;;;;;;5007973;28;20420;-77